createdAt,value
2019-03-17T00:00:02.000Z,7.437
2019-03-17T00:01:01.000Z,7.437
2019-03-17T00:02:01.000Z,7.437
2019-03-17T00:03:01.000Z,7.437
2019-03-17T00:04:01.000Z,7.437
2019-03-17T00:05:02.000Z,7.437
2019-03-17T00:06:02.000Z,7.437
2019-03-17T00:07:01.000Z,7.437
2019-03-17T00:08:02.000Z,7.437
2019-03-17T00:09:01.000Z,7.437
2019-03-17T00:10:01.000Z,7.437
2019-03-17T00:11:01.000Z,7.437
2019-03-17T00:12:02.000Z,7.437
2019-03-17T00:13:01.000Z,7.437
2019-03-17T00:14:02.000Z,7.437
2019-03-17T00:15:02.000Z,7.437
2019-03-17T00:16:02.000Z,7.375
2019-03-17T00:17:01.000Z,7.375
2019-03-17T00:18:01.000Z,7.375
2019-03-17T00:19:02.000Z,7.375
2019-03-17T00:20:01.000Z,7.375
2019-03-17T00:21:01.000Z,7.375
2019-03-17T00:22:01.000Z,7.375
2019-03-17T00:23:02.000Z,7.375
2019-03-17T00:24:01.000Z,7.375
2019-03-17T00:25:02.000Z,7.375
2019-03-17T00:26:01.000Z,7.375
2019-03-17T00:27:01.000Z,7.375
2019-03-17T00:28:02.000Z,7.375
2019-03-17T00:29:01.000Z,7.375
2019-03-17T00:30:02.000Z,7.375
2019-03-17T00:31:02.000Z,7.312
2019-03-17T00:32:01.000Z,7.375
2019-03-17T00:33:01.000Z,7.312
2019-03-17T00:34:02.000Z,7.312
2019-03-17T00:35:01.000Z,7.312
2019-03-17T00:36:01.000Z,7.312
2019-03-17T00:37:02.000Z,7.375
2019-03-17T00:38:01.000Z,7.312
2019-03-17T00:39:02.000Z,7.312
2019-03-17T00:40:02.000Z,7.312
2019-03-17T00:41:01.000Z,7.312
2019-03-17T00:42:02.000Z,7.312
2019-03-17T00:43:02.000Z,7.312
2019-03-17T00:44:01.000Z,7.312
2019-03-17T00:45:02.000Z,7.312
2019-03-17T00:46:01.000Z,7.312
2019-03-17T00:47:01.000Z,7.312
2019-03-17T00:48:02.000Z,7.25
2019-03-17T00:49:01.000Z,7.25
2019-03-17T00:50:01.000Z,7.312
2019-03-17T00:51:02.000Z,7.312
2019-03-17T00:52:01.000Z,7.25
2019-03-17T00:53:02.000Z,7.312
2019-03-17T00:54:01.000Z,7.25
2019-03-17T00:55:01.000Z,7.25
2019-03-17T00:56:02.000Z,7.187
2019-03-17T00:57:01.000Z,7.187
2019-03-17T00:58:02.000Z,7.187
2019-03-17T00:59:01.000Z,7.187
2019-03-17T01:00:01.000Z,7.187
2019-03-17T01:01:02.000Z,7.187
2019-03-17T01:02:01.000Z,7.187
2019-03-17T01:03:01.000Z,7.187
2019-03-17T01:04:02.000Z,7.187
2019-03-17T01:05:01.000Z,7.187
2019-03-17T01:06:02.000Z,7.187
2019-03-17T01:07:01.000Z,7.187
2019-03-17T01:08:02.000Z,7.187
2019-03-17T01:09:01.000Z,7.187
2019-03-17T01:10:02.000Z,7.187
2019-03-17T01:11:01.000Z,7.187
2019-03-17T01:12:02.000Z,7.187
2019-03-17T01:13:02.000Z,7.187
2019-03-17T01:14:02.000Z,7.187
2019-03-17T01:15:01.000Z,7.187
2019-03-17T01:16:01.000Z,7.187
2019-03-17T01:17:01.000Z,7.187
2019-03-17T01:18:02.000Z,7.187
2019-03-17T01:19:02.000Z,7.187
2019-03-17T01:20:01.000Z,7.187
2019-03-17T01:21:01.000Z,7.187
2019-03-17T01:22:02.000Z,7.187
2019-03-17T01:23:01.000Z,7.25
2019-03-17T01:24:02.000Z,7.25
2019-03-17T01:25:02.000Z,7.25
2019-03-17T01:26:01.000Z,7.25
2019-03-17T01:27:02.000Z,7.312
2019-03-17T01:28:01.000Z,7.312
2019-03-17T01:29:01.000Z,7.312
2019-03-17T01:30:01.000Z,7.25
2019-03-17T01:31:02.000Z,7.25
2019-03-17T01:32:02.000Z,7.25
2019-03-17T01:33:02.000Z,7.25
2019-03-17T01:34:01.000Z,7.25
2019-03-17T01:35:02.000Z,7.312
2019-03-17T01:36:02.000Z,7.312
2019-03-17T01:37:01.000Z,7.25
2019-03-17T01:38:01.000Z,7.312
2019-03-17T01:39:01.000Z,7.312
2019-03-17T01:40:02.000Z,7.312
2019-03-17T01:41:01.000Z,7.312
2019-03-17T01:42:01.000Z,7.312
2019-03-17T01:43:02.000Z,7.375
2019-03-17T01:44:01.000Z,7.375
2019-03-17T01:45:02.000Z,7.312
2019-03-17T01:46:01.000Z,7.312
2019-03-17T01:47:02.000Z,7.312
2019-03-17T01:48:01.000Z,7.312
2019-03-17T01:49:01.000Z,7.312
2019-03-17T01:50:02.000Z,7.312
2019-03-17T01:51:01.000Z,7.312
2019-03-17T01:52:01.000Z,7.312
2019-03-17T01:53:02.000Z,7.312
2019-03-17T01:54:01.000Z,7.375
2019-03-17T01:55:01.000Z,7.375
2019-03-17T01:56:01.000Z,7.375
2019-03-17T01:57:01.000Z,7.375
2019-03-17T01:58:01.000Z,7.375
2019-03-17T01:59:01.000Z,7.375
2019-03-17T02:00:02.000Z,7.375
2019-03-17T02:01:01.000Z,7.375
2019-03-17T02:02:01.000Z,7.375
2019-03-17T02:03:02.000Z,7.375
2019-03-17T02:04:01.000Z,7.375
2019-03-17T02:05:01.000Z,7.375
2019-03-17T02:06:02.000Z,7.375
2019-03-17T02:07:02.000Z,7.375
2019-03-17T02:08:01.000Z,7.437
2019-03-17T02:09:01.000Z,7.375
2019-03-17T02:10:01.000Z,7.375
2019-03-17T02:11:01.000Z,7.375
2019-03-17T02:12:02.000Z,7.437
2019-03-17T02:13:02.000Z,7.437
2019-03-17T02:14:01.000Z,7.437
2019-03-17T02:15:01.000Z,7.437
2019-03-17T02:16:01.000Z,7.437
2019-03-17T02:17:01.000Z,7.437
2019-03-17T02:18:01.000Z,7.437
2019-03-17T02:19:01.000Z,7.437
2019-03-17T02:20:02.000Z,7.437
2019-03-17T02:21:01.000Z,7.437
2019-03-17T02:22:02.000Z,7.437
2019-03-17T02:23:01.000Z,7.437
2019-03-17T02:24:01.000Z,7.437
2019-03-17T02:25:02.000Z,7.437
2019-03-17T02:26:01.000Z,7.437
2019-03-17T02:27:01.000Z,7.437
2019-03-17T02:28:02.000Z,7.437
2019-03-17T02:29:01.000Z,7.5
2019-03-17T02:30:02.000Z,7.5
2019-03-17T02:31:01.000Z,7.5
2019-03-17T02:32:02.000Z,7.5
2019-03-17T02:33:01.000Z,7.5
2019-03-17T02:34:01.000Z,7.5
2019-03-17T02:35:01.000Z,7.5
2019-03-17T02:36:01.000Z,7.5
2019-03-17T02:37:02.000Z,7.5
2019-03-17T02:38:01.000Z,7.5
2019-03-17T02:39:01.000Z,7.5
2019-03-17T02:40:02.000Z,7.5
2019-03-17T02:41:01.000Z,7.5
2019-03-17T02:42:02.000Z,7.5
2019-03-17T02:43:01.000Z,7.5
2019-03-17T02:44:02.000Z,7.437
2019-03-17T02:45:02.000Z,7.5
2019-03-17T02:46:01.000Z,7.375
2019-03-17T02:47:02.000Z,7.437
2019-03-17T02:48:01.000Z,7.437
2019-03-17T02:49:01.000Z,7.375
2019-03-17T02:50:02.000Z,7.375
2019-03-17T02:51:01.000Z,7.375
2019-03-17T02:52:01.000Z,7.375
2019-03-17T02:53:02.000Z,7.375
2019-03-17T02:54:01.000Z,7.375
2019-03-17T02:55:01.000Z,7.375
2019-03-17T02:56:01.000Z,7.375
2019-03-17T02:57:01.000Z,7.375
2019-03-17T02:58:02.000Z,7.375
2019-03-17T02:59:01.000Z,7.375
2019-03-17T03:00:02.000Z,7.375
2019-03-17T03:01:02.000Z,7.375
2019-03-17T03:02:01.000Z,7.375
2019-03-17T03:03:02.000Z,7.375
2019-03-17T03:04:01.000Z,7.312
2019-03-17T03:05:02.000Z,7.375
2019-03-17T03:06:01.000Z,7.375
2019-03-17T03:07:01.000Z,7.375
2019-03-17T03:08:02.000Z,7.375
2019-03-17T03:09:01.000Z,7.312
2019-03-17T03:10:02.000Z,7.312
2019-03-17T03:11:01.000Z,7.312
2019-03-17T03:12:01.000Z,7.312
2019-03-17T03:13:02.000Z,7.312
2019-03-17T03:14:01.000Z,7.312
2019-03-17T03:15:02.000Z,7.312
2019-03-17T03:16:01.000Z,7.25
2019-03-17T03:17:01.000Z,7.25
2019-03-17T03:18:01.000Z,7.187
2019-03-17T03:19:02.000Z,7.187
2019-03-17T03:20:01.000Z,7.187
2019-03-17T03:21:02.000Z,7.187
2019-03-17T03:22:01.000Z,7.187
2019-03-17T03:23:01.000Z,7.187
2019-03-17T03:24:01.000Z,7.187
2019-03-17T03:25:02.000Z,7.187
2019-03-17T03:26:01.000Z,7.187
2019-03-17T03:27:01.000Z,7.187
2019-03-17T03:28:02.000Z,7.187
2019-03-17T03:29:01.000Z,7.187
2019-03-17T03:30:01.000Z,7.187
2019-03-17T03:31:02.000Z,7.187
2019-03-17T03:32:01.000Z,7.25
2019-03-17T03:33:02.000Z,7.25
2019-03-17T03:34:02.000Z,7.187
2019-03-17T03:35:01.000Z,7.187
2019-03-17T03:36:02.000Z,7.25
2019-03-17T03:37:02.000Z,7.187
2019-03-17T03:38:01.000Z,7.187
2019-03-17T03:39:02.000Z,7.125
2019-03-17T03:40:01.000Z,7.125
2019-03-17T03:41:02.000Z,7.125
2019-03-17T03:42:01.000Z,7.125
2019-03-17T03:43:01.000Z,7.125
2019-03-17T03:44:01.000Z,7.125
2019-03-17T03:45:02.000Z,7.125
2019-03-17T03:46:01.000Z,7.125
2019-03-17T03:47:01.000Z,7.125
2019-03-17T03:48:02.000Z,7.125
2019-03-17T03:49:01.000Z,7.187
2019-03-17T03:50:02.000Z,7.187
2019-03-17T03:51:01.000Z,7.187
2019-03-17T03:52:01.000Z,7.187
2019-03-17T03:53:02.000Z,7.187
2019-03-17T03:54:02.000Z,7.25
2019-03-17T03:55:01.000Z,7.187
2019-03-17T03:56:02.000Z,7.25
2019-03-17T03:57:01.000Z,7.187
2019-03-17T03:58:01.000Z,7.187
2019-03-17T03:59:02.000Z,7.25
2019-03-17T04:00:01.000Z,7.25
2019-03-17T04:01:02.000Z,7.312
2019-03-17T04:02:01.000Z,7.312
2019-03-17T04:03:02.000Z,7.312
2019-03-17T04:04:02.000Z,7.312
2019-03-17T04:05:01.000Z,7.312
2019-03-17T04:06:02.000Z,7.25
2019-03-17T04:07:01.000Z,7.25
2019-03-17T04:08:02.000Z,7.25
2019-03-17T04:09:02.000Z,7.25
2019-03-17T04:10:01.000Z,7.187
2019-03-17T04:11:02.000Z,7.187
2019-03-17T04:12:01.000Z,7.187
2019-03-17T04:13:02.000Z,7.125
2019-03-17T04:14:02.000Z,7.125
2019-03-17T04:15:01.000Z,7.062
2019-03-17T04:16:01.000Z,7.062
2019-03-17T04:17:02.000Z,7.062
2019-03-17T04:18:01.000Z,7
2019-03-17T04:19:02.000Z,6.937
2019-03-17T04:20:01.000Z,6.937
2019-03-17T04:21:02.000Z,6.937
2019-03-17T04:22:01.000Z,6.937
2019-03-17T04:23:01.000Z,6.937
2019-03-17T04:24:02.000Z,6.937
2019-03-17T04:25:01.000Z,6.937
2019-03-17T04:26:02.000Z,6.937
2019-03-17T04:27:01.000Z,6.937
2019-03-17T04:28:02.000Z,6.937
2019-03-17T04:29:01.000Z,6.937
2019-03-17T04:30:02.000Z,6.937
2019-03-17T04:31:02.000Z,6.937
2019-03-17T04:32:01.000Z,6.937
2019-03-17T04:33:02.000Z,6.937
2019-03-17T04:34:01.000Z,7
2019-03-17T04:35:02.000Z,6.937
2019-03-17T04:36:02.000Z,7
2019-03-17T04:37:01.000Z,6.937
2019-03-17T04:38:01.000Z,6.937
2019-03-17T04:39:02.000Z,6.937
2019-03-17T04:40:01.000Z,6.875
2019-03-17T04:41:02.000Z,6.937
2019-03-17T04:42:01.000Z,6.875
2019-03-17T04:43:01.000Z,6.875
2019-03-17T04:44:02.000Z,6.812
2019-03-17T04:45:01.000Z,6.812
2019-03-17T04:46:01.000Z,6.812
2019-03-17T04:47:02.000Z,6.75
2019-03-17T04:48:02.000Z,6.812
2019-03-17T04:49:01.000Z,6.812
2019-03-17T04:50:02.000Z,6.875
2019-03-17T04:51:01.000Z,6.875
2019-03-17T04:52:02.000Z,6.937
2019-03-17T04:53:01.000Z,7
2019-03-17T04:54:01.000Z,7.062
2019-03-17T04:55:02.000Z,7.062
2019-03-17T04:57:02.000Z,7.125
2019-03-17T04:58:01.000Z,7.125
2019-03-17T04:59:01.000Z,7.187
2019-03-17T05:00:02.000Z,7.125
2019-03-17T05:01:01.000Z,7.125
2019-03-17T05:02:02.000Z,7.125
2019-03-17T05:03:01.000Z,7.187
2019-03-17T05:04:01.000Z,7.187
2019-03-17T05:05:01.000Z,7.25
2019-03-17T05:06:02.000Z,7.25
2019-03-17T05:07:01.000Z,7.25
2019-03-17T05:08:01.000Z,7.312
2019-03-17T05:09:01.000Z,7.312
2019-03-17T05:10:01.000Z,7.312
2019-03-17T05:11:02.000Z,7.375
2019-03-17T05:12:01.000Z,7.375
2019-03-17T05:13:01.000Z,7.375
2019-03-17T05:14:01.000Z,7.375
2019-03-17T05:15:01.000Z,7.437
2019-03-17T05:16:02.000Z,7.437
2019-03-17T05:17:02.000Z,7.437
2019-03-17T05:18:01.000Z,7.437
2019-03-17T05:19:01.000Z,7.437
2019-03-17T05:20:02.000Z,7.5
2019-03-17T05:21:01.000Z,7.5
2019-03-17T05:22:01.000Z,7.5
2019-03-17T05:23:02.000Z,7.5
2019-03-17T05:24:01.000Z,7.5
2019-03-17T05:25:01.000Z,7.562
2019-03-17T05:26:01.000Z,7.562
2019-03-17T05:27:01.000Z,7.625
2019-03-17T05:28:02.000Z,7.625
2019-03-17T05:29:01.000Z,7.687
2019-03-17T05:30:01.000Z,7.75
2019-03-17T05:31:01.000Z,7.75
2019-03-17T05:32:01.000Z,7.812
2019-03-17T05:33:02.000Z,7.875
2019-03-17T05:34:02.000Z,7.875
2019-03-17T05:35:01.000Z,7.875
2019-03-17T05:36:02.000Z,7.875
2019-03-17T05:37:01.000Z,7.812
2019-03-17T05:38:01.000Z,7.812
2019-03-17T05:39:02.000Z,7.75
2019-03-17T05:40:01.000Z,7.687
2019-03-17T05:41:02.000Z,7.562
2019-03-17T05:42:01.000Z,7.437
2019-03-17T05:43:02.000Z,7.375
2019-03-17T05:44:01.000Z,7.312
2019-03-17T05:45:01.000Z,7.25
2019-03-17T05:46:02.000Z,7.125
2019-03-17T05:47:01.000Z,7.125
2019-03-17T05:48:01.000Z,7.062
2019-03-17T05:49:01.000Z,7
2019-03-17T05:50:02.000Z,7
2019-03-17T05:51:01.000Z,6.875
2019-03-17T05:52:01.000Z,6.937
2019-03-17T05:53:01.000Z,6.937
2019-03-17T05:54:01.000Z,6.937
2019-03-17T05:55:01.000Z,6.937
2019-03-17T05:56:02.000Z,6.937
2019-03-17T05:57:01.000Z,6.937
2019-03-17T05:58:02.000Z,6.937
2019-03-17T05:59:01.000Z,6.937
2019-03-17T06:00:02.000Z,6.937
2019-03-17T06:01:02.000Z,6.937
2019-03-17T06:02:01.000Z,7
2019-03-17T06:03:01.000Z,7.062
2019-03-17T06:04:02.000Z,7.062
2019-03-17T06:05:01.000Z,7.062
2019-03-17T06:06:02.000Z,7.062
2019-03-17T06:07:01.000Z,7.062
2019-03-17T06:08:02.000Z,7.062
2019-03-17T06:09:01.000Z,7.062
2019-03-17T06:10:02.000Z,7.062
2019-03-17T06:11:01.000Z,7.062
2019-03-17T06:12:01.000Z,7
2019-03-17T06:13:01.000Z,7
2019-03-17T06:14:02.000Z,7.062
2019-03-17T06:15:01.000Z,7.062
2019-03-17T06:16:01.000Z,7.062
2019-03-17T06:17:01.000Z,7.125
2019-03-17T06:18:02.000Z,7.187
2019-03-17T06:19:02.000Z,7.187
2019-03-17T06:20:02.000Z,7.187
2019-03-17T06:21:02.000Z,7.25
2019-03-17T06:22:01.000Z,7.312
2019-03-17T06:23:01.000Z,7.312
2019-03-17T06:24:01.000Z,7.375
2019-03-17T06:25:01.000Z,7.375
2019-03-17T06:26:02.000Z,7.437
2019-03-17T06:27:01.000Z,7.437
2019-03-17T06:28:01.000Z,7.5
2019-03-17T06:29:01.000Z,7.5
2019-03-17T06:30:01.000Z,7.562
2019-03-17T06:31:02.000Z,7.562
2019-03-17T06:32:01.000Z,7.625
2019-03-17T06:33:02.000Z,7.625
2019-03-17T06:34:01.000Z,7.625
2019-03-17T06:35:02.000Z,7.625
2019-03-17T06:36:02.000Z,7.687
2019-03-17T06:37:01.000Z,7.687
2019-03-17T06:38:02.000Z,7.812
2019-03-17T06:39:02.000Z,7.812
2019-03-17T06:40:01.000Z,7.937
2019-03-17T06:41:01.000Z,8
2019-03-17T06:42:02.000Z,8.062
2019-03-17T06:43:01.000Z,8.125
2019-03-17T06:44:01.000Z,8.125
2019-03-17T06:45:01.000Z,8.187
2019-03-17T06:46:02.000Z,8.187
2019-03-17T06:47:01.000Z,8.25
2019-03-17T06:48:02.000Z,8.25
2019-03-17T06:49:01.000Z,8.25
2019-03-17T06:50:02.000Z,8.25
2019-03-17T06:51:02.000Z,8.312
2019-03-17T06:52:02.000Z,8.312
2019-03-17T06:53:01.000Z,8.312
2019-03-17T06:54:01.000Z,8.312
2019-03-17T06:55:01.000Z,8.312
2019-03-17T06:56:01.000Z,8.312
2019-03-17T06:57:02.000Z,8.375
2019-03-17T06:58:01.000Z,8.375
2019-03-17T06:59:02.000Z,8.375
2019-03-17T07:00:01.000Z,8.437
2019-03-17T07:01:01.000Z,8.437
2019-03-17T07:02:02.000Z,8.437
2019-03-17T07:03:01.000Z,8.437
2019-03-17T07:04:01.000Z,8.437
2019-03-17T07:05:01.000Z,8.5
2019-03-17T07:06:02.000Z,8.562
2019-03-17T07:07:01.000Z,8.687
2019-03-17T07:08:01.000Z,8.875
2019-03-17T07:09:02.000Z,9.062
2019-03-17T07:10:01.000Z,9.187
2019-03-17T07:11:02.000Z,9.187
2019-03-17T07:12:01.000Z,9.187
2019-03-17T07:13:01.000Z,9.125
2019-03-17T07:14:02.000Z,9.062
2019-03-17T07:15:01.000Z,9
2019-03-17T07:16:01.000Z,8.937
2019-03-17T07:17:02.000Z,8.875
2019-03-17T07:18:01.000Z,8.812
2019-03-17T07:19:01.000Z,8.812
2019-03-17T07:20:01.000Z,8.75
2019-03-17T07:21:01.000Z,8.75
2019-03-17T07:22:02.000Z,8.75
2019-03-17T07:23:01.000Z,8.687
2019-03-17T07:24:02.000Z,8.625
2019-03-17T07:25:01.000Z,8.625
2019-03-17T07:26:01.000Z,8.687
2019-03-17T07:27:01.000Z,8.75
2019-03-17T07:28:01.000Z,8.75
2019-03-17T07:29:02.000Z,8.875
2019-03-17T07:30:01.000Z,9
2019-03-17T07:31:01.000Z,9.125
2019-03-17T07:32:02.000Z,9.312
2019-03-17T07:33:02.000Z,9.312
2019-03-17T07:34:01.000Z,9.625
2019-03-17T07:35:02.000Z,9.812
2019-03-17T07:36:01.000Z,10.062
2019-03-17T07:37:01.000Z,10.187
2019-03-17T07:38:02.000Z,10.25
2019-03-17T07:39:02.000Z,10.187
2019-03-17T07:40:01.000Z,10.25
2019-03-17T07:41:02.000Z,10.312
2019-03-17T07:42:01.000Z,10.375
2019-03-17T07:43:01.000Z,10.562
2019-03-17T07:44:02.000Z,10.812
2019-03-17T07:45:01.000Z,11.187
2019-03-17T07:46:01.000Z,11.5
2019-03-17T07:47:02.000Z,11.75
2019-03-17T07:48:01.000Z,12.125
2019-03-17T07:49:01.000Z,12.25
2019-03-17T07:50:01.000Z,12.562
2019-03-17T07:51:02.000Z,12.75
2019-03-17T07:52:01.000Z,12.812
2019-03-17T07:53:01.000Z,12.875
2019-03-17T07:54:01.000Z,12.937
2019-03-17T07:55:02.000Z,13
2019-03-17T07:56:02.000Z,13.187
2019-03-17T07:57:02.000Z,13.312
2019-03-17T07:58:02.000Z,13.437
2019-03-17T07:59:01.000Z,13.625
2019-03-17T08:00:01.000Z,13.812
2019-03-17T08:01:01.000Z,14
2019-03-17T08:02:02.000Z,14.062
2019-03-17T08:03:01.000Z,14
2019-03-17T08:04:01.000Z,14
2019-03-17T08:05:01.000Z,14.125
2019-03-17T08:06:02.000Z,14.125
2019-03-17T08:07:01.000Z,14.062
2019-03-17T08:08:01.000Z,14.062
2019-03-17T08:09:01.000Z,14.187
2019-03-17T08:10:02.000Z,14.375
2019-03-17T08:11:01.000Z,14.437
2019-03-17T08:12:01.000Z,14.437
2019-03-17T08:13:01.000Z,14.562
2019-03-17T08:14:01.000Z,14.812
2019-03-17T08:15:02.000Z,15.062
2019-03-17T08:16:01.000Z,15.187
2019-03-17T08:17:02.000Z,15.375
2019-03-17T08:18:02.000Z,15.375
2019-03-17T08:19:01.000Z,15.062
2019-03-17T08:20:01.000Z,14.812
2019-03-17T08:21:01.000Z,14.562
2019-03-17T08:22:02.000Z,14.25
2019-03-17T08:23:01.000Z,14
2019-03-17T08:24:01.000Z,13.812
2019-03-17T08:25:02.000Z,13.75
2019-03-17T08:26:01.000Z,13.562
2019-03-17T08:27:01.000Z,13.562
2019-03-17T08:28:02.000Z,13.5
2019-03-17T08:29:02.000Z,13.437
2019-03-17T08:30:01.000Z,13.5
2019-03-17T08:31:01.000Z,13.437
2019-03-17T08:32:01.000Z,13.437
2019-03-17T08:33:01.000Z,13.437
2019-03-17T08:34:02.000Z,13.375
2019-03-17T08:35:01.000Z,13.375
2019-03-17T08:36:02.000Z,13.375
2019-03-17T08:37:01.000Z,13.312
2019-03-17T08:38:01.000Z,13.25
2019-03-17T08:39:02.000Z,13.187
2019-03-17T08:40:02.000Z,13.187
2019-03-17T08:41:01.000Z,13.312
2019-03-17T08:42:01.000Z,13.312
2019-03-17T08:43:01.000Z,13.375
2019-03-17T08:44:01.000Z,13.437
2019-03-17T08:45:01.000Z,13.437
2019-03-17T08:46:01.000Z,13.437
2019-03-17T08:47:02.000Z,13.5
2019-03-17T08:48:02.000Z,13.5
2019-03-17T08:49:01.000Z,13.5
2019-03-17T08:50:02.000Z,13.437
2019-03-17T08:51:01.000Z,13.375
2019-03-17T08:52:01.000Z,13.5
2019-03-17T08:53:01.000Z,13.75
2019-03-17T08:54:02.000Z,14.062
2019-03-17T08:55:01.000Z,14.187
2019-03-17T08:56:01.000Z,14.187
2019-03-17T08:57:01.000Z,13.937
2019-03-17T08:58:01.000Z,13.75
2019-03-17T08:59:01.000Z,13.812
2019-03-17T09:00:01.000Z,13.937
2019-03-17T09:01:01.000Z,14.062
2019-03-17T09:02:02.000Z,14.125
2019-03-17T09:03:01.000Z,14.25
2019-03-17T09:04:01.000Z,14.312
2019-03-17T09:05:02.000Z,14.437
2019-03-17T09:06:01.000Z,14.312
2019-03-17T09:07:01.000Z,14.062
2019-03-17T09:08:02.000Z,13.75
2019-03-17T09:09:01.000Z,13.5
2019-03-17T09:10:02.000Z,13.25
2019-03-17T09:11:01.000Z,13
2019-03-17T09:12:01.000Z,12.812
2019-03-17T09:13:01.000Z,12.625
2019-03-17T09:14:01.000Z,12.5
2019-03-17T09:15:02.000Z,12.437
2019-03-17T09:16:01.000Z,12.375
2019-03-17T09:17:02.000Z,12.312
2019-03-17T09:18:02.000Z,12.312
2019-03-17T09:19:01.000Z,12.25
2019-03-17T09:20:02.000Z,12.25
2019-03-17T09:21:01.000Z,12.187
2019-03-17T09:22:01.000Z,12.187
2019-03-17T09:23:02.000Z,12.187
2019-03-17T09:24:01.000Z,12.187
2019-03-17T09:25:01.000Z,12.25
2019-03-17T09:26:01.000Z,12.25
2019-03-17T09:27:02.000Z,12.312
2019-03-17T09:28:01.000Z,12.375
2019-03-17T09:29:01.000Z,12.5
2019-03-17T09:30:01.000Z,12.562
2019-03-17T09:31:01.000Z,12.5
2019-03-17T09:32:01.000Z,12.5
2019-03-17T09:33:02.000Z,12.687
2019-03-17T09:34:02.000Z,12.812
2019-03-17T09:35:01.000Z,12.937
2019-03-17T09:36:01.000Z,13.187
2019-03-17T09:37:02.000Z,13.312
2019-03-17T09:38:01.000Z,13.25
2019-03-17T09:39:02.000Z,13.25
2019-03-17T09:40:01.000Z,13.375
2019-03-17T09:41:02.000Z,13.437
2019-03-17T09:42:01.000Z,13.562
2019-03-17T09:43:01.000Z,13.75
2019-03-17T09:44:02.000Z,13.875
2019-03-17T09:45:01.000Z,13.875
2019-03-17T09:46:01.000Z,13.875
2019-03-17T09:47:02.000Z,13.812
2019-03-17T09:48:02.000Z,13.75
2019-03-17T09:49:01.000Z,13.687
2019-03-17T09:50:01.000Z,13.687
2019-03-17T09:51:02.000Z,13.75
2019-03-17T09:52:01.000Z,13.75
2019-03-17T09:53:02.000Z,13.812
2019-03-17T09:54:01.000Z,13.812
2019-03-17T09:55:01.000Z,13.75
2019-03-17T09:56:02.000Z,13.687
2019-03-17T09:57:01.000Z,13.687
2019-03-17T09:58:01.000Z,13.625
2019-03-17T09:59:02.000Z,13.562
2019-03-17T10:00:01.000Z,13.562
2019-03-17T10:01:01.000Z,13.5
2019-03-17T10:02:01.000Z,13.5
2019-03-17T10:03:02.000Z,13.437
2019-03-17T10:04:01.000Z,13.312
2019-03-17T10:05:01.000Z,13.312
2019-03-17T10:06:02.000Z,13.25
2019-03-17T10:07:01.000Z,13.25
2019-03-17T10:08:01.000Z,13.187
2019-03-17T10:09:01.000Z,13.187
2019-03-17T10:10:02.000Z,13.187
2019-03-17T10:11:01.000Z,13.125
2019-03-17T10:12:01.000Z,13.187
2019-03-17T10:13:02.000Z,13.25
2019-03-17T10:14:01.000Z,13.312
2019-03-17T10:15:01.000Z,13.25
2019-03-17T10:16:01.000Z,13.187
2019-03-17T10:17:01.000Z,13.187
2019-03-17T10:18:01.000Z,13.187
2019-03-17T10:19:01.000Z,13.125
2019-03-17T10:20:01.000Z,13.062
2019-03-17T10:21:01.000Z,13.125
2019-03-17T10:22:02.000Z,13.125
2019-03-17T10:23:01.000Z,13.062
2019-03-17T10:24:01.000Z,13
2019-03-17T10:25:01.000Z,13
2019-03-17T10:26:01.000Z,13
2019-03-17T10:27:02.000Z,12.875
2019-03-17T10:28:01.000Z,12.875
2019-03-17T10:29:01.000Z,12.937
2019-03-17T10:30:02.000Z,12.937
2019-03-17T10:31:01.000Z,12.937
2019-03-17T10:32:01.000Z,12.937
2019-03-17T10:33:01.000Z,13
2019-03-17T10:34:01.000Z,13.062
2019-03-17T10:35:02.000Z,13.062
2019-03-17T10:36:01.000Z,13.062
2019-03-17T10:37:02.000Z,13.062
2019-03-17T10:38:01.000Z,13.125
2019-03-17T10:39:01.000Z,13.125
2019-03-17T10:40:02.000Z,13.187
2019-03-17T10:44:01.000Z,13.5
2019-03-17T10:45:02.000Z,13.5
2019-03-17T10:46:02.000Z,13.562
2019-03-17T10:47:02.000Z,13.625
2019-03-17T10:48:01.000Z,13.75
2019-03-17T10:49:01.000Z,13.75
2019-03-17T10:50:02.000Z,13.875
2019-03-17T10:51:02.000Z,13.937
2019-03-17T10:52:01.000Z,13.875
2019-03-17T10:53:01.000Z,13.937
2019-03-17T10:54:01.000Z,13.937
2019-03-17T10:55:02.000Z,13.937
2019-03-17T10:56:01.000Z,13.937
2019-03-17T10:57:01.000Z,14
2019-03-17T10:58:02.000Z,13.937
2019-03-17T10:59:01.000Z,13.937
2019-03-17T11:00:02.000Z,13.875
2019-03-17T11:01:02.000Z,13.812
2019-03-17T11:02:01.000Z,13.687
2019-03-17T11:03:01.000Z,13.625
2019-03-17T11:04:02.000Z,13.437
2019-03-17T11:05:01.000Z,13.375
2019-03-17T11:06:01.000Z,13.375
2019-03-17T11:07:02.000Z,13.25
2019-03-17T11:08:01.000Z,13.25
2019-03-17T11:09:02.000Z,13.187
2019-03-17T11:10:01.000Z,13.125
2019-03-17T11:11:01.000Z,13.125
2019-03-17T11:12:02.000Z,13.187
2019-03-17T11:13:01.000Z,13.25
2019-03-17T11:14:02.000Z,13.312
2019-03-17T11:15:01.000Z,13.375
2019-03-17T11:16:02.000Z,13.562
2019-03-17T11:17:02.000Z,13.687
2019-03-17T11:18:01.000Z,13.812
2019-03-17T11:19:02.000Z,13.937
2019-03-17T11:20:02.000Z,14
2019-03-17T11:21:01.000Z,14.187
2019-03-17T11:22:01.000Z,14.25
2019-03-17T11:23:01.000Z,14.312
2019-03-17T11:24:02.000Z,14.312
2019-03-17T11:25:01.000Z,14.312
2019-03-17T11:26:01.000Z,14.312
2019-03-17T11:27:02.000Z,14.187
2019-03-17T11:28:01.000Z,14.25
2019-03-17T11:29:01.000Z,14.25
2019-03-17T11:30:01.000Z,14.187
2019-03-17T11:31:01.000Z,14.187
2019-03-17T11:32:01.000Z,14.187
2019-03-17T11:33:02.000Z,14.187
2019-03-17T11:34:01.000Z,13.937
2019-03-17T11:35:01.000Z,13.875
2019-03-17T11:36:02.000Z,13.812
2019-03-17T11:37:01.000Z,13.687
2019-03-17T11:38:01.000Z,13.625
2019-03-17T11:39:02.000Z,13.687
2019-03-17T11:40:01.000Z,13.687
2019-03-17T11:41:01.000Z,13.687
2019-03-17T11:42:01.000Z,13.687
2019-03-17T11:43:02.000Z,13.625
2019-03-17T11:44:02.000Z,13.562
2019-03-17T11:45:01.000Z,13.5
2019-03-17T11:46:01.000Z,13.375
2019-03-17T11:47:02.000Z,13.25
2019-03-17T11:48:01.000Z,13.187
2019-03-17T11:49:01.000Z,13.187
2019-03-17T11:50:02.000Z,13.187
2019-03-17T11:51:01.000Z,13.187
2019-03-17T11:52:02.000Z,13.187
2019-03-17T11:53:01.000Z,13.062
2019-03-17T11:54:02.000Z,13
2019-03-17T11:55:01.000Z,13
2019-03-17T11:56:01.000Z,12.937
2019-03-17T11:57:02.000Z,12.875
2019-03-17T11:58:01.000Z,12.812
2019-03-17T11:59:02.000Z,12.75
2019-03-17T12:00:02.000Z,12.75
2019-03-17T12:01:02.000Z,12.75
2019-03-17T12:02:02.000Z,12.812
2019-03-17T12:03:01.000Z,12.812
2019-03-17T12:04:01.000Z,12.812
2019-03-17T12:05:02.000Z,12.875
2019-03-17T12:06:01.000Z,12.937
2019-03-17T12:07:01.000Z,13
2019-03-17T12:08:02.000Z,13.125
2019-03-17T12:09:01.000Z,13.187
2019-03-17T12:12:02.000Z,13.437
2019-03-17T12:13:02.000Z,13.5
2019-03-17T12:14:01.000Z,13.437
2019-03-17T12:15:01.000Z,13.375
2019-03-17T12:16:01.000Z,13.312
2019-03-17T12:17:01.000Z,13.312
2019-03-17T12:18:01.000Z,13.312
2019-03-17T12:19:02.000Z,13.25
2019-03-17T12:20:01.000Z,13.187
2019-03-17T12:21:02.000Z,13.125
2019-03-17T12:22:01.000Z,13
2019-03-17T12:23:02.000Z,12.875
2019-03-17T12:24:01.000Z,12.812
2019-03-17T12:25:02.000Z,12.75
2019-03-17T12:26:01.000Z,12.75
2019-03-17T12:27:02.000Z,12.75
2019-03-17T12:28:01.000Z,12.75
2019-03-17T12:29:01.000Z,12.75
2019-03-17T12:30:01.000Z,12.75
2019-03-17T12:31:02.000Z,12.812
2019-03-17T12:32:01.000Z,12.812
2019-03-17T12:33:02.000Z,12.812
2019-03-17T12:34:02.000Z,12.812
2019-03-17T12:35:01.000Z,12.812
2019-03-17T12:36:02.000Z,12.812
2019-03-17T12:37:01.000Z,12.75
2019-03-17T12:38:01.000Z,12.625
2019-03-17T12:39:01.000Z,12.562
2019-03-17T12:40:01.000Z,12.5
2019-03-17T12:41:01.000Z,12.375
2019-03-17T12:42:01.000Z,12.312
2019-03-17T12:43:01.000Z,12.187
2019-03-17T12:44:02.000Z,12.125
2019-03-17T12:45:01.000Z,12
2019-03-17T12:46:02.000Z,11.875
2019-03-17T12:47:02.000Z,11.75
2019-03-17T12:51:02.000Z,9.875
2019-03-17T12:52:01.000Z,9.187
2019-03-17T12:53:01.000Z,8.812
2019-03-17T12:54:02.000Z,8.437
2019-03-17T12:55:01.000Z,8.125
2019-03-17T12:56:01.000Z,7.937
2019-03-17T12:58:02.000Z,7.562
2019-03-17T12:59:02.000Z,7.5
2019-03-17T13:00:01.000Z,7.437
2019-03-17T13:01:01.000Z,7.375
2019-03-17T13:02:01.000Z,7.312